createdAt,value
2022-12-31T00:01:27.055Z,10.03
2022-12-31T00:03:54.809Z,9.38
2022-12-31T00:06:26.119Z,10.30
2022-12-31T00:08:55.439Z,10.60
2022-12-31T00:11:23.809Z,10.00
2022-12-31T00:13:50.944Z,10.00
2022-12-31T00:16:21.256Z,10.00
2022-12-31T00:18:51.363Z,10.35
2022-12-31T00:21:19.788Z,9.68
2022-12-31T00:23:47.696Z,9.38
2022-12-31T00:26:17.858Z,9.67
2022-12-31T00:28:45.166Z,9.13
2022-12-31T00:31:15.165Z,9.48
2022-12-31T00:33:42.539Z,9.40
2022-12-31T00:36:15.590Z,10.07
2022-12-31T00:38:45.256Z,9.70
2022-12-31T00:41:13.029Z,10.13
2022-12-31T00:43:39.946Z,10.60
2022-12-31T00:46:07.878Z,10.38
2022-12-31T00:48:36.085Z,10.55
2022-12-31T00:51:05.605Z,11.40
2022-12-31T00:53:32.588Z,10.55
2022-12-31T00:56:01.307Z,10.40
2022-12-31T00:58:28.807Z,10.80
2022-12-31T01:00:55.872Z,11.43
2022-12-31T01:03:23.109Z,13.10
2022-12-31T01:05:50.584Z,12.30
2022-12-31T01:08:18.071Z,15.82
2022-12-31T01:11:09.518Z,16.98
2022-12-31T01:13:36.512Z,19.27
2022-12-31T01:16:11.366Z,19.83
2022-12-31T01:18:39.216Z,19.33
2022-12-31T01:21:09.869Z,19.20
2022-12-31T01:23:36.877Z,19.23
2022-12-31T01:26:06.517Z,19.42
2022-12-31T01:28:34.318Z,19.93
2022-12-31T01:31:12.679Z,19.67
2022-12-31T01:33:40.073Z,20.05
2022-12-31T01:36:25.374Z,19.05
2022-12-31T01:38:55.102Z,18.58
2022-12-31T01:41:28.202Z,17.83
2022-12-31T01:43:58.700Z,18.25
2022-12-31T01:46:46.505Z,18.48
2022-12-31T01:49:46.215Z,18.90
2022-12-31T01:52:28.025Z,18.17
2022-12-31T01:55:05.893Z,18.67
2022-12-31T01:57:33.082Z,17.08
2022-12-31T02:00:01.845Z,17.25
2022-12-31T02:02:29.077Z,17.30
2022-12-31T02:05:00.229Z,16.75
2022-12-31T02:07:27.264Z,17.73
2022-12-31T02:09:54.466Z,15.60
2022-12-31T02:12:21.617Z,15.40
2022-12-31T02:14:51.990Z,15.40
2022-12-31T02:17:28.104Z,15.63
2022-12-31T02:20:13.617Z,13.40
2022-12-31T02:23:17.176Z,13.45
2022-12-31T02:26:04.096Z,12.37
2022-12-31T02:28:43.103Z,14.07
2022-12-31T02:31:24.533Z,14.23
2022-12-31T02:33:57.594Z,13.73
2022-12-31T02:36:30.405Z,12.37
2022-12-31T02:38:58.713Z,12.73
2022-12-31T02:41:44.511Z,12.82
2022-12-31T02:44:39.098Z,13.43
2022-12-31T02:47:09.025Z,12.90
2022-12-31T02:49:48.036Z,12.32
2022-12-31T02:52:23.464Z,12.30
2022-12-31T02:55:03.129Z,12.60
2022-12-31T02:58:08.525Z,12.73
2022-12-31T03:01:01.817Z,12.07
2022-12-31T03:03:29.197Z,12.65
2022-12-31T03:05:57.600Z,12.35
2022-12-31T03:08:26.411Z,12.82
2022-12-31T03:10:53.309Z,12.07
2022-12-31T03:13:20.197Z,11.90
2022-12-31T03:15:47.196Z,11.63
2022-12-31T03:18:16.566Z,11.52
2022-12-31T03:21:07.913Z,11.68
2022-12-31T03:23:40.901Z,13.07
2022-12-31T03:26:11.732Z,12.10
2022-12-31T03:28:41.187Z,11.70
2022-12-31T03:31:08.711Z,13.55
2022-12-31T03:33:37.798Z,12.50
2022-12-31T03:36:09.738Z,12.55
2022-12-31T03:38:37.138Z,11.93
2022-12-31T03:41:04.909Z,11.98
2022-12-31T03:43:32.006Z,11.65
2022-12-31T03:46:01.351Z,10.43
2022-12-31T03:48:28.958Z,11.98
2022-12-31T03:50:56.203Z,11.93
2022-12-31T03:53:23.336Z,11.48
2022-12-31T03:55:54.036Z,11.10
2022-12-31T03:58:21.831Z,10.68
2022-12-31T04:00:49.307Z,11.80
2022-12-31T04:03:16.429Z,11.53
2022-12-31T04:05:43.553Z,10.32
2022-12-31T04:08:10.434Z,10.80
2022-12-31T04:10:37.343Z,11.20
2022-12-31T04:13:04.913Z,11.15
2022-12-31T04:15:32.243Z,11.13
2022-12-31T04:17:59.130Z,11.48
2022-12-31T04:20:26.160Z,10.43
2022-12-31T04:22:53.154Z,10.90
2022-12-31T04:25:20.083Z,11.85
2022-12-31T04:27:47.160Z,11.63
2022-12-31T04:30:15.037Z,11.43
2022-12-31T04:32:42.231Z,12.32
2022-12-31T04:35:10.558Z,12.15
2022-12-31T04:37:37.501Z,12.02
2022-12-31T04:40:07.087Z,12.53
2022-12-31T04:42:34.981Z,12.13
2022-12-31T04:45:01.940Z,12.13
2022-12-31T04:47:28.901Z,11.95
2022-12-31T04:49:55.998Z,12.63
2022-12-31T04:52:23.077Z,14.30
2022-12-31T04:54:50.283Z,13.95
2022-12-31T04:57:17.286Z,14.05
2022-12-31T04:59:44.217Z,13.55
2022-12-31T05:02:11.176Z,13.95
2022-12-31T05:04:38.181Z,14.47
2022-12-31T05:07:05.030Z,13.77
2022-12-31T05:09:31.898Z,13.23
2022-12-31T05:11:58.808Z,12.07
2022-12-31T05:14:25.910Z,15.20
2022-12-31T05:16:52.980Z,17.30
2022-12-31T05:19:19.946Z,14.38
2022-12-31T05:22:07.283Z,13.95
2022-12-31T05:24:34.164Z,12.23
2022-12-31T05:27:01.265Z,11.38
2022-12-31T05:29:28.666Z,12.07
2022-12-31T05:31:55.791Z,11.45
2022-12-31T05:34:22.659Z,11.85
2022-12-31T05:36:49.573Z,12.77
2022-12-31T05:39:16.477Z,11.63
2022-12-31T05:41:43.311Z,12.43
2022-12-31T05:44:10.984Z,10.85
2022-12-31T05:46:37.946Z,11.32
2022-12-31T05:49:05.039Z,10.93
2022-12-31T05:51:32.043Z,11.05
2022-12-31T05:53:58.933Z,12.13
2022-12-31T05:56:25.929Z,11.35
2022-12-31T05:58:53.085Z,10.50
2022-12-31T06:01:20.152Z,11.10
2022-12-31T06:03:47.218Z,11.70
2022-12-31T06:06:14.168Z,11.10
2022-12-31T06:08:41.174Z,10.73
2022-12-31T06:11:08.142Z,11.23
2022-12-31T06:13:35.006Z,11.10
2022-12-31T06:16:06.735Z,12.82
2022-12-31T06:18:33.943Z,12.37
2022-12-31T06:21:01.166Z,13.35
2022-12-31T06:23:28.018Z,13.52
2022-12-31T06:25:54.879Z,13.27
2022-12-31T06:28:21.904Z,13.48
2022-12-31T06:30:49.088Z,12.90
2022-12-31T06:33:15.926Z,13.10
2022-12-31T06:35:42.844Z,12.25
2022-12-31T06:38:10.176Z,13.02
2022-12-31T06:40:37.819Z,12.55
2022-12-31T06:43:05.803Z,12.80
2022-12-31T06:45:32.821Z,13.32
2022-12-31T06:47:59.938Z,12.95
2022-12-31T06:50:26.778Z,12.35
2022-12-31T06:52:53.605Z,12.75
2022-12-31T06:55:20.887Z,12.03
2022-12-31T06:57:48.281Z,11.12
2022-12-31T07:00:16.224Z,11.23
2022-12-31T07:03:25.322Z,10.85
2022-12-31T07:06:10.708Z,11.43
2022-12-31T07:08:49.857Z,11.47
2022-12-31T07:11:29.201Z,11.70
2022-12-31T07:14:02.222Z,11.45
2022-12-31T07:16:55.173Z,11.15
2022-12-31T07:19:41.563Z,12.10
2022-12-31T07:22:13.924Z,12.50
2022-12-31T07:24:41.886Z,13.57
2022-12-31T07:27:48.827Z,11.82
2022-12-31T07:30:43.630Z,11.85
2022-12-31T07:33:50.748Z,11.90
2022-12-31T07:36:41.727Z,12.27
2022-12-31T07:39:16.838Z,12.07
2022-12-31T07:41:52.617Z,12.30
2022-12-31T07:44:40.891Z,13.30
2022-12-31T07:47:20.400Z,12.75
2022-12-31T07:49:47.953Z,13.87
2022-12-31T07:52:15.297Z,12.32
2022-12-31T07:54:42.915Z,12.35
2022-12-31T07:57:12.401Z,12.45
2022-12-31T07:59:57.811Z,11.75
2022-12-31T08:02:49.505Z,12.10
2022-12-31T08:05:27.369Z,11.85
2022-12-31T08:08:29.600Z,11.68
2022-12-31T08:11:14.533Z,12.23
2022-12-31T08:13:42.679Z,11.85
2022-12-31T08:16:13.164Z,12.67
2022-12-31T08:18:40.757Z,13.05
2022-12-31T08:21:18.076Z,12.65
2022-12-31T08:24:03.080Z,12.82
2022-12-31T08:26:48.185Z,12.20
2022-12-31T08:29:44.458Z,14.70
2022-12-31T08:32:20.935Z,15.43
2022-12-31T08:35:35.444Z,13.90
2022-12-31T08:38:20.935Z,12.90
2022-12-31T08:41:16.458Z,11.38
2022-12-31T08:44:16.159Z,20.17
2022-12-31T08:46:45.660Z,14.60
2022-12-31T08:49:15.614Z,13.27
2022-12-31T08:51:43.018Z,14.13
2022-12-31T08:54:12.293Z,15.40
2022-12-31T08:56:54.199Z,15.17
2022-12-31T08:59:30.531Z,13.27
2022-12-31T09:02:08.378Z,11.35
2022-12-31T09:04:56.609Z,15.43
2022-12-31T09:07:34.278Z,15.15
2022-12-31T09:10:20.346Z,14.60
2022-12-31T09:13:08.044Z,14.18
2022-12-31T09:16:04.190Z,14.13
2022-12-31T09:18:34.388Z,19.73
2022-12-31T09:21:01.524Z,18.70
2022-12-31T09:23:28.718Z,15.40
2022-12-31T09:26:00.680Z,13.93
2022-12-31T09:28:45.878Z,12.65
2022-12-31T09:31:31.613Z,18.95
2022-12-31T09:34:21.255Z,18.23
2022-12-31T09:36:55.828Z,16.13
2022-12-31T09:39:29.071Z,13.32
2022-12-31T09:42:07.909Z,14.93
2022-12-31T09:44:37.461Z,15.35
2022-12-31T09:47:28.970Z,16.37
2022-12-31T09:50:27.531Z,15.17
2022-12-31T09:53:13.421Z,16.15
2022-12-31T09:55:49.319Z,15.27
2022-12-31T09:58:22.012Z,14.98
2022-12-31T10:00:58.111Z,16.95
2022-12-31T10:03:43.238Z,16.27
2022-12-31T10:06:34.496Z,15.25
2022-12-31T10:09:07.094Z,14.30
2022-12-31T10:11:52.232Z,16.70
2022-12-31T10:14:46.903Z,18.50
2022-12-31T10:17:23.556Z,21.43
2022-12-31T10:20:15.636Z,18.92
2022-12-31T10:22:42.511Z,14.98
2022-12-31T10:25:39.265Z,14.95
2022-12-31T10:28:18.353Z,18.67
2022-12-31T10:31:13.226Z,15.73
2022-12-31T10:34:04.697Z,15.70
2022-12-31T10:36:45.367Z,16.33
2022-12-31T10:39:42.555Z,15.18
2022-12-31T10:42:47.210Z,16.05
2022-12-31T10:45:45.493Z,14.27
2022-12-31T10:48:52.503Z,15.55
2022-12-31T10:51:44.899Z,15.35
2022-12-31T10:54:36.452Z,15.45
2022-12-31T10:57:37.538Z,17.58
2022-12-31T11:00:21.681Z,21.60
2022-12-31T11:03:03.315Z,17.12
2022-12-31T11:06:07.609Z,21.62
2022-12-31T11:09:09.894Z,16.87
2022-12-31T11:11:42.845Z,18.35
2022-12-31T11:14:31.458Z,18.77
2022-12-31T11:17:21.777Z,17.00
2022-12-31T11:19:54.522Z,16.10
2022-12-31T11:22:36.486Z,18.35
2022-12-31T11:25:12.473Z,18.62
2022-12-31T11:27:53.824Z,17.20
2022-12-31T11:31:02.489Z,17.75
2022-12-31T11:33:35.289Z,18.15
2022-12-31T11:36:39.507Z,18.17
2022-12-31T11:39:42.571Z,17.10
2022-12-31T11:42:16.326Z,16.10
2022-12-31T11:44:56.033Z,17.12
2022-12-31T11:48:04.265Z,15.82
2022-12-31T11:50:59.310Z,16.75
2022-12-31T11:53:39.898Z,18.25
2022-12-31T11:56:19.203Z,16.13
2022-12-31T11:58:54.329Z,17.45
2022-12-31T12:01:42.287Z,15.90
2022-12-31T12:04:11.142Z,16.30
2022-12-31T12:06:40.283Z,19.10
2022-12-31T12:09:13.587Z,18.27
2022-12-31T12:11:41.101Z,18.62
2022-12-31T12:14:32.330Z,19.15
2022-12-31T12:17:04.753Z,17.10
2022-12-31T12:19:35.077Z,18.10
2022-12-31T12:22:22.028Z,20.03
2022-12-31T12:25:04.005Z,18.55
2022-12-31T12:27:33.669Z,19.45
2022-12-31T12:30:30.119Z,19.35
2022-12-31T12:33:00.599Z,19.62
2022-12-31T12:35:35.821Z,20.47
2022-12-31T12:38:12.657Z,19.62
2022-12-31T12:40:40.158Z,19.75
2022-12-31T12:43:22.580Z,18.17
2022-12-31T12:45:52.438Z,18.35
2022-12-31T12:48:30.064Z,19.53
2022-12-31T12:50:58.001Z,20.33
2022-12-31T12:54:14.847Z,19.50
2022-12-31T12:56:59.992Z,18.50
2022-12-31T13:10:03.318Z,18.08
2022-12-31T13:13:21.941Z,18.92
2022-12-31T13:15:42.618Z,18.12
2022-12-31T13:18:26.280Z,19.40
2022-12-31T13:21:19.886Z,19.77
2022-12-31T13:24:04.877Z,19.62
2022-12-31T13:26:38.964Z,18.25
2022-12-31T13:29:09.236Z,21.30
2022-12-31T13:31:39.701Z,20.73
2022-12-31T13:34:17.365Z,19.87
2022-12-31T13:36:48.532Z,19.60
2022-12-31T13:39:28.656Z,21.42
2022-12-31T13:42:09.061Z,20.73
2022-12-31T13:44:47.815Z,21.53
2022-12-31T13:47:30.503Z,22.23
2022-12-31T13:50:14.832Z,22.60
2022-12-31T13:52:49.143Z,22.30
2022-12-31T13:55:23.029Z,24.55
2022-12-31T13:57:58.399Z,23.33
2022-12-31T14:00:30.113Z,19.70
2022-12-31T14:03:14.289Z,20.08
2022-12-31T14:05:56.438Z,20.48
2022-12-31T14:08:23.469Z,22.02
2022-12-31T14:10:53.117Z,20.67
2022-12-31T14:13:35.556Z,22.98
2022-12-31T14:16:28.516Z,22.92
2022-12-31T14:19:03.027Z,21.10
2022-12-31T14:21:47.197Z,23.90
2022-12-31T14:24:26.259Z,23.47
2022-12-31T14:26:58.437Z,24.23
2022-12-31T14:29:48.187Z,25.40
2022-12-31T14:32:30.993Z,25.23
2022-12-31T14:35:03.485Z,24.55
2022-12-31T14:37:38.782Z,25.50
2022-12-31T14:40:12.745Z,26.35
2022-12-31T14:43:04.645Z,24.10
2022-12-31T14:45:53.052Z,22.70
2022-12-31T14:48:28.871Z,22.87
2022-12-31T14:51:01.986Z,23.23
2022-12-31T14:53:29.643Z,24.67
2022-12-31T14:56:19.023Z,23.00
2022-12-31T14:58:56.389Z,22.95
2022-12-31T15:01:26.055Z,22.00
2022-12-31T15:03:58.163Z,23.17
2022-12-31T15:06:44.564Z,21.58
2022-12-31T15:09:28.206Z,21.08
2022-12-31T15:12:00.861Z,21.37
2022-12-31T15:15:05.353Z,25.25
2022-12-31T15:17:48.042Z,23.27
2022-12-31T15:20:45.691Z,23.85
2022-12-31T15:23:21.278Z,23.35
2022-12-31T15:25:52.094Z,25.73
2022-12-31T15:28:35.573Z,25.37
2022-12-31T15:31:07.420Z,25.57
2022-12-31T15:33:53.979Z,24.90
2022-12-31T15:36:25.350Z,23.90
2022-12-31T15:39:05.529Z,24.77
2022-12-31T15:42:18.795Z,27.02
2022-12-31T15:44:53.286Z,28.03
2022-12-31T15:47:36.575Z,29.33
2022-12-31T15:50:07.968Z,28.08
2022-12-31T15:52:48.975Z,25.98
2022-12-31T15:55:25.889Z,27.20
2022-12-31T15:58:00.301Z,27.03
2022-12-31T16:00:38.366Z,27.02
2022-12-31T16:03:21.187Z,27.02
2022-12-31T16:05:48.843Z,26.27
2022-12-31T16:08:28.497Z,28.02
2022-12-31T16:10:55.706Z,27.03
2022-12-31T16:13:26.209Z,45.78
2022-12-31T16:16:03.496Z,96.87
2022-12-31T16:18:39.043Z,39.63
2022-12-31T16:21:06.592Z,33.40
2022-12-31T16:23:50.013Z,32.03
2022-12-31T16:26:16.971Z,32.72
2022-12-31T16:28:48.755Z,38.72
2022-12-31T16:31:18.966Z,45.60
2022-12-31T16:33:47.124Z,44.35
2022-12-31T16:36:22.961Z,44.07
2022-12-31T16:38:50.096Z,44.22
2022-12-31T16:41:19.974Z,39.67
2022-12-31T16:43:49.160Z,42.97
2022-12-31T16:46:21.887Z,41.30
2022-12-31T16:48:53.520Z,40.27
2022-12-31T16:51:24.334Z,39.45
2022-12-31T16:53:52.069Z,38.60
2022-12-31T16:56:39.318Z,37.38
2022-12-31T16:59:23.992Z,36.03
2022-12-31T17:01:52.432Z,33.23
2022-12-31T17:04:21.155Z,35.55
2022-12-31T17:06:48.216Z,35.15
2022-12-31T17:09:21.471Z,35.58
2022-12-31T17:11:52.930Z,37.03
2022-12-31T17:14:28.072Z,37.73
2022-12-31T17:17:04.523Z,35.88
2022-12-31T17:19:43.332Z,33.55
2022-12-31T17:22:29.793Z,33.58
2022-12-31T17:25:03.741Z,34.55
2022-12-31T17:27:31.373Z,35.07
2022-12-31T17:30:35.285Z,34.45
2022-12-31T17:33:24.794Z,28.55
2022-12-31T17:36:16.346Z,28.55
2022-12-31T17:38:43.865Z,32.13
2022-12-31T17:41:23.268Z,33.53
2022-12-31T17:43:55.272Z,33.90
2022-12-31T17:46:23.585Z,33.67
2022-12-31T17:48:56.127Z,35.53
2022-12-31T17:51:24.130Z,35.92
2022-12-31T17:53:51.383Z,45.73
2022-12-31T17:56:19.796Z,58.80
2022-12-31T17:58:52.378Z,54.00
2022-12-31T18:01:22.781Z,48.87
2022-12-31T18:03:50.153Z,45.95
2022-12-31T18:06:19.590Z,63.63
2022-12-31T18:08:47.243Z,41.72
2022-12-31T18:11:18.282Z,49.92
2022-12-31T18:13:45.852Z,40.95
2022-12-31T18:16:12.875Z,39.22
2022-12-31T18:18:41.877Z,33.83
2022-12-31T18:21:18.613Z,38.95
2022-12-31T18:23:47.175Z,41.83
2022-12-31T18:26:19.966Z,40.40
2022-12-31T18:28:48.180Z,42.03
2022-12-31T18:31:27.559Z,47.57
2022-12-31T18:33:56.930Z,48.20
2022-12-31T18:36:24.747Z,47.55
2022-12-31T18:38:51.893Z,44.15
2022-12-31T18:41:21.555Z,41.37
2022-12-31T18:43:49.099Z,36.47
2022-12-31T18:46:18.668Z,33.90
2022-12-31T18:48:45.981Z,35.72
2022-12-31T18:51:31.311Z,36.28
2022-12-31T18:54:00.475Z,37.22
2022-12-31T18:56:28.326Z,39.00
2022-12-31T18:58:55.608Z,42.40
2022-12-31T19:01:34.082Z,39.58
2022-12-31T19:04:11.667Z,35.95
2022-12-31T19:06:38.591Z,37.05
2022-12-31T19:09:17.962Z,35.07
2022-12-31T19:11:53.455Z,32.90
2022-12-31T19:14:24.273Z,37.35
2022-12-31T19:16:53.450Z,32.90
2022-12-31T19:19:21.161Z,35.63
2022-12-31T19:21:48.465Z,35.47
2022-12-31T19:24:20.757Z,35.50
2022-12-31T19:26:48.426Z,34.67
2022-12-31T19:29:27.636Z,33.90
2022-12-31T19:31:54.840Z,34.88
2022-12-31T19:34:21.891Z,35.67
2022-12-31T19:36:49.098Z,33.42
2022-12-31T19:39:18.990Z,34.75
2022-12-31T19:41:49.158Z,32.30
2022-12-31T19:44:21.399Z,34.80
2022-12-31T19:46:49.420Z,33.30
2022-12-31T19:49:16.639Z,34.33
2022-12-31T19:51:43.608Z,34.53
2022-12-31T19:54:12.924Z,35.28
2022-12-31T19:56:39.828Z,33.25
2022-12-31T19:59:09.036Z,42.77
2022-12-31T20:01:36.647Z,41.15
2022-12-31T20:04:03.960Z,39.67
2022-12-31T20:06:30.835Z,35.60
2022-12-31T20:08:57.711Z,34.20
2022-12-31T20:11:25.037Z,35.23
2022-12-31T20:13:53.943Z,34.22
2022-12-31T20:16:24.071Z,39.53
2022-12-31T20:18:51.366Z,40.17
2022-12-31T20:21:23.945Z,34.20
2022-12-31T20:23:52.394Z,32.37
2022-12-31T20:26:20.681Z,33.30
2022-12-31T20:28:48.698Z,36.92
2022-12-31T20:31:19.125Z,31.42
2022-12-31T20:33:46.173Z,33.58
2022-12-31T20:36:15.064Z,36.77
2022-12-31T20:38:42.063Z,33.85
2022-12-31T20:41:12.066Z,32.10
2022-12-31T20:43:39.586Z,32.53
2022-12-31T20:46:19.697Z,33.13
2022-12-31T20:48:48.447Z,34.03
2022-12-31T20:51:17.189Z,31.60
2022-12-31T20:53:49.439Z,32.03
2022-12-31T20:56:17.426Z,33.17
2022-12-31T20:58:45.211Z,32.25
2022-12-31T21:01:13.588Z,32.23
2022-12-31T21:06:30.542Z,30.45
2022-12-31T21:08:59.635Z,29.70
2022-12-31T21:11:46.310Z,30.02
2022-12-31T21:14:13.351Z,30.43
2022-12-31T21:16:40.347Z,30.42
2022-12-31T21:19:07.337Z,29.30
2022-12-31T21:21:34.251Z,29.25
2022-12-31T21:24:01.212Z,29.58
2022-12-31T21:26:29.233Z,29.00
2022-12-31T21:28:56.379Z,29.80
2022-12-31T21:31:23.442Z,31.67
2022-12-31T21:33:50.386Z,28.50
2022-12-31T21:36:17.259Z,31.20
2022-12-31T21:38:44.350Z,30.30
2022-12-31T21:41:33.498Z,30.67
2022-12-31T21:44:04.468Z,30.30
2022-12-31T21:46:31.534Z,30.50
2022-12-31T21:49:00.132Z,30.85
2022-12-31T21:51:27.857Z,28.73
2022-12-31T21:53:54.930Z,29.73
2022-12-31T21:56:22.677Z,32.25
2022-12-31T21:59:16.063Z,30.85
2022-12-31T22:02:02.298Z,29.12
2022-12-31T22:05:01.532Z,29.40
2022-12-31T22:07:16.157Z,27.95
2022-12-31T22:09:43.053Z,25.92
2022-12-31T22:12:09.990Z,26.10
2022-12-31T22:14:36.903Z,28.12
2022-12-31T22:17:03.789Z,25.63
2022-12-31T22:19:43.505Z,28.25
2022-12-31T22:22:19.552Z,27.05
2022-12-31T22:24:46.436Z,27.23
2022-12-31T22:27:28.874Z,27.67
2022-12-31T22:29:56.844Z,28.27
2022-12-31T22:32:23.788Z,30.45
2022-12-31T22:34:50.646Z,34.33
2022-12-31T22:37:46.560Z,43.15
2022-12-31T22:40:05.010Z,43.42
2022-12-31T22:42:31.975Z,38.40
2022-12-31T22:44:58.769Z,35.55
2022-12-31T22:47:25.693Z,37.70
2022-12-31T22:49:52.690Z,35.53
2022-12-31T22:52:19.693Z,36.90
2022-12-31T22:54:46.620Z,35.77
2022-12-31T22:57:19.802Z,37.80
2022-12-31T22:59:48.018Z,40.28
2022-12-31T23:02:16.399Z,38.33
2022-12-31T23:04:43.559Z,38.28
2022-12-31T23:07:10.540Z,42.30
2022-12-31T23:09:56.299Z,52.42
2022-12-31T23:12:23.235Z,44.85
2022-12-31T23:15:09.120Z,42.08
2022-12-31T23:17:54.798Z,42.95
2022-12-31T23:20:42.196Z,41.33
2022-12-31T23:23:14.859Z,65.80
2022-12-31T23:25:47.390Z,81.65
2022-12-31T23:28:17.252Z,85.05
2022-12-31T23:30:44.936Z,86.00
2022-12-31T23:33:20.749Z,83.83
2022-12-31T23:35:48.166Z,82.57
2022-12-31T23:38:17.474Z,77.47
2022-12-31T23:40:45.133Z,60.10
2022-12-31T23:43:20.425Z,69.90
2022-12-31T23:45:51.823Z,75.73
2022-12-31T23:48:18.847Z,65.10
2022-12-31T23:50:52.923Z,49.95
2022-12-31T23:53:20.864Z,48.58
2022-12-31T23:55:47.777Z,47.50
2022-12-31T23:58:15.448Z,47.07
